This is the latest recevied weather packets stored in our database for station/object AE6DC-5. If no packets are shown the sender has not sent any weather packets the latest 10 day(s).
| Time | Temp. | Humidity | Pressure | Rain* | Wind** | Luminosity | Snow |
|---|---|---|---|---|---|---|---|
| 1777876338 | 13.33° C | 87% | 1015.3 hPa | 0 mm | - | 0 W/m² | - |
| 1777875618 | 13.33° C | 87% | 1015.3 hPa | 0 mm | - | 0 W/m² | - |
| 1777874898 | 13.33° C | 88% | 1015 hPa | 0 mm | - | 0 W/m² | - |
| 1777873818 | 13.33° C | 88% | 1015 hPa | 0 mm | - | 0 W/m² | - |
| 1777871656 | 12.78° C | 88% | 1015 hPa | 0 mm | - | 0 W/m² | - |
| 1777871296 | 13.33° C | 88% | 1015 hPa | 0 mm | - | 0 W/m² | - |
| 1777870220 | 13.33° C | 88% | 1014.6 hPa | 0 mm | - | 0 W/m² | - |
| 1777866258 | 13.33° C | 87% | 1014.1 hPa | 0 mm | - | 0 W/m² | - |
| 1777861962 | 13.89° C | 84% | 1013.7 hPa | 0 mm | - | 37 W/m² | - |
| 1777861582 | 13.89° C | 84% | 1013.8 hPa | 0 mm | - | 49 W/m² | - |
| 1777860140 | 13.89° C | 83% | 1013.6 hPa | 0 mm | - | 115 W/m² | - |
| 1777851165 | 13.89° C | 82% | 1013.1 hPa | 0 mm | - | 698 W/m² | - |
| 1777849700 | 13.89° C | 83% | 1012.8 hPa | 0 mm | - | 856 W/m² | - |
| 1777848980 | 13.89° C | 83% | 1013.2 hPa | 0 mm | - | 651 W/m² | - |
| 1777847897 | 13.89° C | 84% | 1012.8 hPa | 0 mm | - | 957 W/m² | - |
| 1777847540 | 13.89° C | 84% | 1013.3 hPa | 0 mm | - | 632 W/m² | - |
| 1777840705 | 13.33° C | 85% | 1013.3 hPa | 0 mm | - | 630 W/m² | - |
| 1777838540 | 13.33° C | 85% | 1013.6 hPa | 0 mm | - | 440 W/m² | - |
| 1777838200 | 13.33° C | 86% | 1013.6 hPa | 0 mm | - | 457 W/m² | - |
| 1777837817 | 13.33° C | 86% | 1013.5 hPa | 0 mm | - | 508 W/m² | - |
| 1777837457 | 13.33° C | 85% | 1013.6 hPa | 0 mm | - | 458 W/m² | - |
| 1777835301 | 13.33° C | 88% | 1013.6 hPa | 0 mm | - | 399 W/m² | - |
| 1777834218 | 12.78° C | 89% | 1013.7 hPa | 0 mm | - | 340 W/m² | - |
| 1777833498 | 12.78° C | 90% | 1013.8 hPa | 0 mm | - | 378 W/m² | - |
| 1777833159 | 12.78° C | 90% | 1013.7 hPa | 0 mm | - | 426 W/m² | - |
* Rain latest hour (hover to see other rain measurements)
** Current wind speed in m/s (hover to see current wind gust speed)